createdAt,value
2023-03-11T00:00:46.874Z,0.49
2023-03-11T00:03:14.315Z,0.46
2023-03-11T00:05:42.023Z,0.48
2023-03-11T00:08:09.397Z,0.49
2023-03-11T00:10:40.903Z,0.45
2023-03-11T00:13:08.349Z,0.47
2023-03-11T00:15:35.027Z,0.45
2023-03-11T00:18:01.520Z,0.45
2023-03-11T00:20:30.396Z,0.47
2023-03-11T00:22:57.149Z,0.45
2023-03-11T00:25:24.983Z,0.46
2023-03-11T00:27:51.371Z,0.44
2023-03-11T00:30:18.359Z,0.47
2023-03-11T00:32:44.759Z,0.47
2023-03-11T00:35:15.840Z,0.45
2023-03-11T00:37:42.369Z,0.44
2023-03-11T00:40:12.668Z,0.46
2023-03-11T00:42:39.044Z,0.46
2023-03-11T00:45:05.907Z,0.44
2023-03-11T00:47:32.279Z,0.45
2023-03-11T00:49:58.616Z,0.43
2023-03-11T00:52:25.002Z,0.41
2023-03-11T00:54:51.348Z,0.42
2023-03-11T00:57:17.875Z,0.42
2023-03-11T00:59:44.233Z,0.44
2023-03-11T01:02:10.639Z,0.40
2023-03-11T01:04:37.043Z,0.41
2023-03-11T01:07:03.607Z,0.41
2023-03-11T01:09:29.956Z,0.40
2023-03-11T01:11:56.476Z,0.42
2023-03-11T01:14:23.025Z,0.42
2023-03-11T01:16:49.425Z,0.43
2023-03-11T01:19:16.019Z,0.43
2023-03-11T01:21:43.063Z,0.42
2023-03-11T01:24:09.507Z,0.41
2023-03-11T01:26:35.851Z,0.41
2023-03-11T01:29:02.210Z,0.41
2023-03-11T01:31:28.627Z,0.41
2023-03-11T01:33:55.205Z,0.42
2023-03-11T01:36:21.559Z,0.44
2023-03-11T01:38:48.086Z,0.40
2023-03-11T01:41:14.454Z,0.43
2023-03-11T01:43:43.790Z,0.41
2023-03-11T01:46:32.376Z,0.41
2023-03-11T01:48:59.917Z,0.39
2023-03-11T01:51:33.622Z,0.39
2023-03-11T01:54:02.448Z,0.37
2023-03-11T01:56:28.810Z,0.40
2023-03-11T01:58:55.171Z,0.38
2023-03-11T02:01:21.644Z,0.40
2023-03-11T02:03:48.158Z,0.39
2023-03-11T02:06:16.882Z,0.40
2023-03-11T02:08:43.385Z,0.38
2023-03-11T02:11:12.521Z,0.40
2023-03-11T02:13:38.902Z,0.40
2023-03-11T02:16:05.744Z,0.41
2023-03-11T02:18:32.161Z,0.41
2023-03-11T02:21:16.957Z,0.42
2023-03-11T02:24:09.557Z,0.45
2023-03-11T02:26:54.980Z,0.43
2023-03-11T02:29:21.599Z,0.47
2023-03-11T02:31:48.158Z,0.46
2023-03-11T02:34:19.960Z,0.47
2023-03-11T02:36:46.376Z,0.45
2023-03-11T02:39:12.757Z,0.46
2023-03-11T02:41:40.763Z,0.46
2023-03-11T02:44:08.148Z,0.49
2023-03-11T02:46:35.656Z,0.48
2023-03-11T02:49:02.095Z,0.47
2023-03-11T02:51:28.456Z,0.46
2023-03-11T02:53:56.970Z,0.44
2023-03-11T02:56:23.331Z,0.46
2023-03-11T02:58:49.897Z,0.47
2023-03-11T03:01:16.301Z,0.42
2023-03-11T03:03:42.934Z,0.44
2023-03-11T03:06:09.717Z,0.45
2023-03-11T03:08:36.076Z,0.48
2023-03-11T03:11:03.443Z,0.43
2023-03-11T03:13:30.750Z,0.41
2023-03-11T03:15:57.285Z,0.37
2023-03-11T03:18:23.827Z,0.35
2023-03-11T03:20:51.216Z,0.37
2023-03-11T03:23:17.689Z,0.31
2023-03-11T03:25:44.564Z,0.27
2023-03-11T03:28:11.952Z,0.32
2023-03-11T03:30:38.613Z,0.33
2023-03-11T03:33:05.026Z,0.29
2023-03-11T03:35:31.464Z,0.29
2023-03-11T03:37:57.875Z,0.28
2023-03-11T03:40:24.314Z,0.28
2023-03-11T03:42:50.738Z,0.30
2023-03-11T03:45:17.164Z,0.31
2023-03-11T03:47:43.503Z,0.30
2023-03-11T03:50:10.808Z,0.28
2023-03-11T03:52:37.416Z,0.27
2023-03-11T03:55:04.672Z,0.27
2023-03-11T03:57:31.433Z,0.25
2023-03-11T03:59:57.840Z,0.27
2023-03-11T04:02:24.500Z,0.30
2023-03-11T04:04:50.952Z,0.28
2023-03-11T04:07:17.502Z,0.26
2023-03-11T04:09:43.948Z,0.27
2023-03-11T04:12:14.720Z,0.25
2023-03-11T04:14:42.139Z,0.26
2023-03-11T04:17:10.335Z,0.24
2023-03-11T04:19:36.931Z,0.26
2023-03-11T04:22:03.277Z,0.26
2023-03-11T04:24:29.711Z,0.26
2023-03-11T04:26:56.049Z,0.24
2023-03-11T04:29:22.448Z,0.25
2023-03-11T04:31:49.029Z,0.22
2023-03-11T04:34:15.396Z,0.25
2023-03-11T04:36:44.630Z,0.26
2023-03-11T04:39:11.345Z,0.24
2023-03-11T04:41:37.730Z,0.24
2023-03-11T04:44:04.332Z,0.26
2023-03-11T04:46:30.729Z,0.27
2023-03-11T04:48:57.520Z,0.25
2023-03-11T04:51:24.056Z,0.27
2023-03-11T04:53:50.437Z,0.30
2023-03-11T04:56:16.820Z,0.24
2023-03-11T04:58:43.237Z,0.23
2023-03-11T05:01:09.646Z,0.19
2023-03-11T05:03:36.052Z,0.24
2023-03-11T05:06:02.402Z,0.24
2023-03-11T05:08:29.009Z,0.24
2023-03-11T05:10:55.386Z,0.22
2023-03-11T05:13:21.962Z,0.23
2023-03-11T05:15:48.567Z,0.18
2023-03-11T05:18:15.232Z,0.17
2023-03-11T05:20:41.589Z,0.19
2023-03-11T05:23:08.125Z,0.19
2023-03-11T05:25:35.424Z,0.20
2023-03-11T05:28:01.963Z,0.22
2023-03-11T05:30:28.336Z,0.20
2023-03-11T05:32:56.328Z,0.22
2023-03-11T05:35:23.027Z,0.19
2023-03-11T05:37:53.539Z,0.15
2023-03-11T05:40:20.371Z,0.17
2023-03-11T05:42:46.893Z,0.16
2023-03-11T05:45:13.564Z,0.17
2023-03-11T05:47:42.342Z,0.17
2023-03-11T05:50:10.435Z,0.13
2023-03-11T05:52:37.013Z,0.16
2023-03-11T05:55:03.706Z,0.17
2023-03-11T05:57:30.070Z,0.18
2023-03-11T05:59:56.826Z,0.20
2023-03-11T06:02:23.342Z,0.13
2023-03-11T06:04:49.849Z,0.09
2023-03-11T06:07:16.380Z,0.09
2023-03-11T06:09:42.927Z,0.15
2023-03-11T06:12:09.347Z,0.14
2023-03-11T06:14:35.900Z,0.13
2023-03-11T06:17:03.918Z,0.20
2023-03-11T06:19:30.269Z,0.20
2023-03-11T06:21:57.044Z,0.16
2023-03-11T06:24:23.425Z,0.19
2023-03-11T06:26:53.009Z,0.23
2023-03-11T06:29:19.556Z,0.23
2023-03-11T06:31:45.971Z,0.24
2023-03-11T06:34:12.540Z,0.23
2023-03-11T06:36:38.931Z,0.23
2023-03-11T06:39:05.343Z,0.21
2023-03-11T06:41:34.220Z,0.24
2023-03-11T06:44:00.660Z,0.27
2023-03-11T06:46:27.056Z,0.26
2023-03-11T06:48:54.112Z,0.27
2023-03-11T06:51:20.837Z,0.26
2023-03-11T06:53:51.881Z,0.24
2023-03-11T06:56:18.535Z,0.31
2023-03-11T06:58:45.807Z,0.26
2023-03-11T07:01:15.969Z,0.25
2023-03-11T07:03:42.729Z,0.30
2023-03-11T07:06:20.259Z,0.32
2023-03-11T07:08:48.164Z,0.25
2023-03-11T07:11:16.538Z,0.30
2023-03-11T07:13:43.055Z,0.31
2023-03-11T07:16:15.598Z,0.30
2023-03-11T07:18:43.158Z,0.28
2023-03-11T07:21:09.790Z,0.31
2023-03-11T07:23:36.249Z,0.26
2023-03-11T07:26:02.662Z,0.34
2023-03-11T07:28:29.163Z,0.31
2023-03-11T07:30:55.740Z,0.27
2023-03-11T07:33:23.941Z,0.34
2023-03-11T07:35:50.770Z,0.32
2023-03-11T07:38:18.008Z,0.36
2023-03-11T07:40:44.490Z,0.36
2023-03-11T07:43:10.979Z,0.41
2023-03-11T07:45:37.630Z,0.40
2023-03-11T07:48:04.678Z,0.37
2023-03-11T07:50:31.119Z,0.48
2023-03-11T07:52:57.518Z,0.46
2023-03-11T07:55:23.965Z,0.45
2023-03-11T07:57:51.612Z,0.47
2023-03-11T08:00:18.579Z,0.54
2023-03-11T08:02:45.131Z,0.56
2023-03-11T08:05:11.690Z,0.57
2023-03-11T08:07:38.200Z,0.50
2023-03-11T08:10:04.912Z,0.52
2023-03-11T08:12:31.348Z,0.45
2023-03-11T08:14:57.738Z,0.54
2023-03-11T08:17:24.096Z,0.52
2023-03-11T08:19:50.550Z,0.65
2023-03-11T08:22:16.949Z,0.53
2023-03-11T08:24:43.310Z,0.62
2023-03-11T08:27:09.749Z,0.67
2023-03-11T08:29:36.483Z,0.60
2023-03-11T08:32:03.319Z,0.62
2023-03-11T08:34:29.709Z,0.67
2023-03-11T08:36:56.612Z,0.63
2023-03-11T08:39:23.930Z,0.62
2023-03-11T08:41:50.318Z,0.60
2023-03-11T08:44:16.747Z,0.69
2023-03-11T08:46:43.294Z,0.66
2023-03-11T08:49:09.990Z,0.71
2023-03-11T08:51:36.515Z,0.63
2023-03-11T08:54:03.234Z,0.71
2023-03-11T08:56:29.645Z,0.75
2023-03-11T08:58:56.002Z,0.79
2023-03-11T09:01:23.824Z,0.70
2023-03-11T09:03:50.324Z,0.75
2023-03-11T09:06:17.124Z,0.81
2023-03-11T09:08:44.045Z,0.89
2023-03-11T09:11:10.455Z,0.90
2023-03-11T09:13:37.069Z,0.99
2023-03-11T09:16:05.851Z,0.89
2023-03-11T09:18:32.342Z,0.85
2023-03-11T09:21:00.884Z,0.90
2023-03-11T09:23:27.465Z,0.94
2023-03-11T09:25:53.821Z,0.92
2023-03-11T09:28:20.185Z,1.00
2023-03-11T09:30:46.575Z,1.04
2023-03-11T09:33:12.990Z,1.06
2023-03-11T09:35:39.453Z,1.11
2023-03-11T09:38:05.888Z,1.05
2023-03-11T09:41:27.277Z,1.22
2023-03-11T09:44:00.148Z,1.19
2023-03-11T09:46:44.915Z,1.20
2023-03-11T09:49:38.708Z,1.29
2023-03-11T09:52:15.608Z,1.39
2023-03-11T09:54:43.757Z,1.42
2023-03-11T09:57:13.350Z,1.34
2023-03-11T09:59:39.694Z,1.23
2023-03-11T10:02:06.056Z,1.31
2023-03-11T10:04:41.208Z,1.32
2023-03-11T10:07:18.951Z,1.35
2023-03-11T10:09:48.031Z,1.46
2023-03-11T10:12:42.243Z,1.50
2023-03-11T10:15:39.321Z,1.57
2023-03-11T10:18:31.215Z,1.47
2023-03-11T10:21:01.621Z,1.52
2023-03-11T10:23:50.424Z,1.49
2023-03-11T10:26:28.541Z,1.46
2023-03-11T10:28:59.005Z,1.45
2023-03-11T10:31:32.040Z,1.56
2023-03-11T10:34:38.146Z,1.53
2023-03-11T10:37:19.567Z,1.61
2023-03-11T10:39:49.144Z,1.66
2023-03-11T10:42:22.727Z,1.70
2023-03-11T10:44:50.539Z,1.73
2023-03-11T10:47:23.136Z,1.73
2023-03-11T10:49:50.153Z,1.72
2023-03-11T10:52:17.148Z,1.73
2023-03-11T10:54:46.300Z,1.81
2023-03-11T10:57:27.134Z,2.03
2023-03-11T10:59:55.289Z,2.09
2023-03-11T11:02:28.977Z,2.15
2023-03-11T11:05:17.358Z,2.15
2023-03-11T11:07:44.942Z,2.28
2023-03-11T11:10:19.908Z,2.30
2023-03-11T11:13:02.676Z,2.17
2023-03-11T11:15:32.111Z,2.21
2023-03-11T11:18:06.243Z,2.28
2023-03-11T11:20:33.247Z,2.32
2023-03-11T11:23:03.518Z,2.42
2023-03-11T11:25:35.672Z,2.47
2023-03-11T11:28:19.288Z,2.55
2023-03-11T11:30:56.657Z,2.68
2023-03-11T11:33:25.686Z,2.85
2023-03-11T11:35:54.839Z,2.81
2023-03-11T11:38:25.174Z,2.77
2023-03-11T11:40:52.561Z,3.27
2023-03-11T11:43:21.962Z,3.63
2023-03-11T11:45:59.635Z,3.64
2023-03-11T11:49:06.013Z,3.95
2023-03-11T11:51:40.346Z,4.07
2023-03-11T11:54:25.577Z,4.08
2023-03-11T11:56:52.234Z,3.94
2023-03-11T11:59:20.329Z,3.55
2023-03-11T12:02:45.536Z,3.54
2023-03-11T12:05:26.241Z,3.48
2023-03-11T12:07:56.254Z,3.64
2023-03-11T12:10:32.379Z,3.66
2023-03-11T12:13:40.519Z,3.63
2023-03-11T12:16:30.324Z,3.75
2023-03-11T12:18:58.828Z,3.81
2023-03-11T12:21:31.447Z,3.82
2023-03-11T12:24:00.806Z,3.76
2023-03-11T12:26:27.342Z,3.95
2023-03-11T12:29:15.681Z,4.53
2023-03-11T12:31:42.718Z,4.48
2023-03-11T12:34:13.200Z,4.73
2023-03-11T12:36:40.782Z,4.97
2023-03-11T12:39:08.715Z,5.38
2023-03-11T12:41:38.839Z,5.19
2023-03-11T12:44:24.837Z,5.13
2023-03-11T12:46:54.325Z,5.37
2023-03-11T12:49:24.543Z,5.39
2023-03-11T12:52:00.973Z,5.60
2023-03-11T12:54:34.890Z,5.85
2023-03-11T12:57:03.103Z,6.16
2023-03-11T12:59:55.908Z,5.99
2023-03-11T13:02:52.187Z,5.67
2023-03-11T13:05:52.785Z,5.78
2023-03-11T13:08:20.940Z,5.96
2023-03-11T13:10:54.540Z,6.26
2023-03-11T13:13:32.938Z,6.20
2023-03-11T13:16:14.815Z,6.27
2023-03-11T13:18:42.083Z,6.57
2023-03-11T13:21:27.445Z,6.74
2023-03-11T13:24:32.303Z,6.54
2023-03-11T13:26:58.816Z,6.75
2023-03-11T13:29:52.877Z,6.62
2023-03-11T13:32:28.402Z,6.73
2023-03-11T13:35:10.206Z,6.97
2023-03-11T13:37:50.736Z,6.89
2023-03-11T13:40:33.245Z,6.89
2023-03-11T13:43:03.844Z,7.03
2023-03-11T13:45:32.252Z,6.83
2023-03-11T13:48:07.664Z,6.65
2023-03-11T13:50:40.491Z,6.30
2023-03-11T13:53:09.626Z,6.67
2023-03-11T13:55:41.329Z,6.79
2023-03-11T13:58:24.445Z,6.70
2023-03-11T14:00:53.235Z,6.41
2023-03-11T14:03:22.127Z,6.67
2023-03-11T14:05:50.583Z,6.39
2023-03-11T14:08:26.933Z,6.39
2023-03-11T14:11:00.151Z,6.41
2023-03-11T14:13:28.731Z,6.69
2023-03-11T14:16:05.725Z,6.56
2023-03-11T14:19:02.045Z,6.49
2023-03-11T14:21:28.414Z,6.95
2023-03-11T14:23:55.262Z,7.16
2023-03-11T14:26:23.332Z,6.75
2023-03-11T14:28:51.483Z,6.86
2023-03-11T14:31:34.333Z,6.99
2023-03-11T14:34:09.807Z,7.05
2023-03-11T14:36:46.319Z,7.26
2023-03-11T14:39:27.955Z,7.12
2023-03-11T14:42:19.087Z,7.22
2023-03-11T14:45:14.652Z,7.49
2023-03-11T14:47:45.300Z,7.76
2023-03-11T14:50:15.489Z,7.49
2023-03-11T14:52:42.883Z,7.57
2023-03-11T14:55:18.330Z,7.45
2023-03-11T14:57:46.402Z,7.28
2023-03-11T15:00:16.046Z,7.51
2023-03-11T15:03:01.040Z,7.20
2023-03-11T15:05:35.639Z,7.38
2023-03-11T15:08:02.915Z,7.16
2023-03-11T15:10:29.394Z,7.08
2023-03-11T15:13:10.924Z,6.98
2023-03-11T15:15:37.348Z,7.03
2023-03-11T15:18:04.440Z,7.28
2023-03-11T15:20:35.308Z,7.30
2023-03-11T15:23:05.916Z,7.34
2023-03-11T15:25:36.793Z,7.33
2023-03-11T15:28:24.213Z,7.13
2023-03-11T15:30:51.775Z,7.21
2023-03-11T15:33:32.430Z,7.24
2023-03-11T15:35:58.860Z,7.03
2023-03-11T15:38:26.239Z,6.79
2023-03-11T15:40:53.913Z,6.71
2023-03-11T15:43:25.537Z,6.47
2023-03-11T15:45:54.148Z,6.40
2023-03-11T15:48:21.097Z,6.22
2023-03-11T15:50:55.476Z,6.07
2023-03-11T15:53:22.697Z,5.87
2023-03-11T15:55:49.114Z,5.73
2023-03-11T15:58:16.763Z,5.66
2023-03-11T16:00:47.486Z,5.72
2023-03-11T16:03:13.911Z,5.58
2023-03-11T16:05:40.659Z,5.45
2023-03-11T16:08:07.021Z,5.41
2023-03-11T16:10:33.384Z,5.36
2023-03-11T16:12:59.860Z,5.38
2023-03-11T16:15:28.746Z,5.32
2023-03-11T16:17:56.872Z,5.23
2023-03-11T16:20:24.630Z,5.04
2023-03-11T16:22:55.481Z,4.98
2023-03-11T16:25:27.991Z,4.96
2023-03-11T16:27:55.136Z,4.75
2023-03-11T16:30:21.861Z,4.74
2023-03-11T16:32:48.726Z,4.48
2023-03-11T16:35:15.246Z,4.45
2023-03-11T16:37:43.264Z,4.39
2023-03-11T16:40:17.891Z,4.26
2023-03-11T16:42:44.263Z,4.25
2023-03-11T16:45:12.095Z,4.17
2023-03-11T16:47:38.545Z,4.09
2023-03-11T16:50:05.512Z,3.98
2023-03-11T16:52:31.955Z,3.81
2023-03-11T16:54:59.779Z,3.78
2023-03-11T16:57:26.140Z,3.78
2023-03-11T16:59:52.485Z,3.69
2023-03-11T17:02:19.587Z,3.70
2023-03-11T17:04:45.997Z,3.63
2023-03-11T17:07:12.376Z,3.58
2023-03-11T17:09:39.326Z,3.57
2023-03-11T17:12:06.177Z,3.54
2023-03-11T17:14:32.591Z,3.48
2023-03-11T17:16:59.149Z,3.37
2023-03-11T17:19:25.659Z,3.33
2023-03-11T17:21:52.089Z,3.33
2023-03-11T17:24:19.195Z,3.34
2023-03-11T17:26:45.578Z,3.24
2023-03-11T17:29:11.940Z,3.18
2023-03-11T17:31:38.418Z,3.15
2023-03-11T17:34:04.827Z,3.14
2023-03-11T17:36:31.202Z,3.11
2023-03-11T17:38:59.014Z,3.05
2023-03-11T17:41:25.353Z,2.97
2023-03-11T17:43:51.778Z,2.96
2023-03-11T17:46:19.052Z,2.94
2023-03-11T17:48:46.370Z,2.89
2023-03-11T17:51:14.276Z,2.85
2023-03-11T17:53:42.795Z,2.73
2023-03-11T17:56:10.973Z,2.71
2023-03-11T17:58:37.336Z,2.64
2023-03-11T18:01:07.901Z,2.52
2023-03-11T18:03:34.265Z,2.50
2023-03-11T18:06:01.988Z,2.46
2023-03-11T18:08:28.568Z,2.45
2023-03-11T18:10:57.961Z,2.48
2023-03-11T18:13:24.351Z,2.42
2023-03-11T18:16:01.288Z,2.42
2023-03-11T18:18:28.377Z,2.39
2023-03-11T18:20:54.846Z,2.36
2023-03-11T18:23:21.380Z,2.39
2023-03-11T18:25:51.918Z,2.34
2023-03-11T18:28:18.301Z,2.32
2023-03-11T18:30:45.739Z,2.29
2023-03-11T18:33:12.508Z,2.27
2023-03-11T18:35:38.886Z,2.24
2023-03-11T18:38:05.353Z,2.26
2023-03-11T18:40:31.706Z,2.26
2023-03-11T18:42:58.082Z,2.21
2023-03-11T18:45:24.480Z,2.20
2023-03-11T18:47:50.851Z,2.19
2023-03-11T18:50:17.349Z,2.16
2023-03-11T18:52:43.724Z,2.13
2023-03-11T18:55:10.222Z,2.02
2023-03-11T18:57:36.599Z,2.04
2023-03-11T19:00:04.189Z,1.98
2023-03-11T19:02:30.585Z,2.00
2023-03-11T19:04:57.014Z,2.00
2023-03-11T19:07:23.406Z,1.95
2023-03-11T19:09:49.896Z,1.93
2023-03-11T19:12:16.248Z,1.92
2023-03-11T19:14:42.780Z,1.92
2023-03-11T19:17:09.262Z,1.87
2023-03-11T19:19:35.662Z,1.86
2023-03-11T19:22:02.106Z,1.80
2023-03-11T19:24:28.449Z,1.78
2023-03-11T19:26:54.782Z,1.75
2023-03-11T19:29:23.700Z,1.78
2023-03-11T19:31:50.378Z,1.70
2023-03-11T19:34:16.828Z,1.69
2023-03-11T19:36:43.310Z,1.66
2023-03-11T19:39:09.744Z,1.66
2023-03-11T19:41:36.178Z,1.66
2023-03-11T19:44:04.418Z,1.64
2023-03-11T19:46:34.329Z,1.63
2023-03-11T19:49:00.840Z,1.56
2023-03-11T19:51:32.930Z,1.53
2023-03-11T19:54:05.524Z,1.54
2023-03-11T19:56:32.122Z,1.51
2023-03-11T19:58:58.492Z,1.45
2023-03-11T20:01:28.132Z,1.42
2023-03-11T20:03:54.524Z,1.45
2023-03-11T20:06:22.588Z,1.39
2023-03-11T20:08:49.984Z,1.40
2023-03-11T20:11:16.701Z,1.40
2023-03-11T20:13:43.987Z,1.37
2023-03-11T20:16:12.669Z,1.35
2023-03-11T20:18:39.578Z,1.34
2023-03-11T20:21:07.296Z,1.33
2023-03-11T20:23:34.150Z,1.33
2023-03-11T20:26:03.938Z,1.34
2023-03-11T20:28:30.285Z,1.28
2023-03-11T20:30:56.715Z,1.29
2023-03-11T20:33:23.185Z,1.26
2023-03-11T20:35:49.685Z,1.25
2023-03-11T20:38:17.802Z,1.21
2023-03-11T20:40:44.282Z,1.18
2023-03-11T20:43:10.699Z,1.20
2023-03-11T20:45:37.055Z,1.18
2023-03-11T20:48:03.546Z,1.15
2023-03-11T20:50:29.924Z,1.16
2023-03-11T20:52:56.405Z,1.17
2023-03-11T20:55:22.977Z,1.19
2023-03-11T20:57:49.437Z,1.17
2023-03-11T21:00:16.153Z,1.14
2023-03-11T21:02:43.084Z,1.14
2023-03-11T21:05:10.188Z,1.15
2023-03-11T21:07:36.748Z,1.13
2023-03-11T21:10:08.280Z,1.14
2023-03-11T21:12:34.818Z,1.13
2023-03-11T21:15:01.223Z,1.13
2023-03-11T21:17:27.638Z,1.13
2023-03-11T21:19:54.094Z,1.09
2023-03-11T21:22:20.510Z,1.05
2023-03-11T21:24:53.500Z,1.05
2023-03-11T21:27:25.771Z,0.99
2023-03-11T21:29:53.437Z,0.99
2023-03-11T21:32:20.277Z,0.95
2023-03-11T21:34:46.872Z,0.89
2023-03-11T21:37:13.302Z,0.90
2023-03-11T21:39:39.850Z,0.92
2023-03-11T21:42:06.377Z,0.92
2023-03-11T21:44:32.857Z,0.97
2023-03-11T21:46:59.476Z,0.92
2023-03-11T21:49:26.085Z,0.89
2023-03-11T21:51:52.681Z,0.87
2023-03-11T21:54:19.172Z,0.87
2023-03-11T21:56:45.702Z,0.83
2023-03-11T21:59:12.165Z,0.83
2023-03-11T22:01:38.943Z,0.85
2023-03-11T22:04:05.702Z,0.83
2023-03-11T22:06:33.292Z,0.81
2023-03-11T22:09:00.730Z,0.84
2023-03-11T22:11:27.111Z,0.85
2023-03-11T22:13:54.416Z,0.80
2023-03-11T22:16:21.460Z,0.83
2023-03-11T22:18:48.178Z,0.80
2023-03-11T22:21:15.298Z,0.75
2023-03-11T22:23:42.408Z,0.78
2023-03-11T22:26:08.917Z,0.80
2023-03-11T22:28:35.292Z,0.77
2023-03-11T22:31:06.590Z,0.77
2023-03-11T22:33:34.241Z,0.72
2023-03-11T22:36:02.041Z,0.71
2023-03-11T22:38:30.121Z,0.65
2023-03-11T22:40:56.522Z,0.64
2023-03-11T22:43:23.104Z,0.60
2023-03-11T22:45:49.503Z,0.63
2023-03-11T22:48:15.884Z,0.60
2023-03-11T22:50:44.441Z,0.56
2023-03-11T22:53:15.099Z,0.52
2023-03-11T22:55:42.411Z,0.50
2023-03-11T22:58:08.805Z,0.51
2023-03-11T23:00:35.432Z,0.52
2023-03-11T23:03:01.861Z,0.54
2023-03-11T23:05:28.266Z,0.55
2023-03-11T23:07:54.645Z,0.54
2023-03-11T23:10:21.606Z,0.55
2023-03-11T23:12:48.279Z,0.53
2023-03-11T23:15:16.488Z,0.55
2023-03-11T23:17:42.899Z,0.49
2023-03-11T23:20:11.953Z,0.51
2023-03-11T23:22:38.643Z,0.53
2023-03-11T23:25:06.427Z,0.50
2023-03-11T23:27:32.818Z,0.47
2023-03-11T23:29:59.213Z,0.47
2023-03-11T23:32:25.769Z,0.46
2023-03-11T23:34:52.203Z,0.42
2023-03-11T23:37:18.853Z,0.42
2023-03-11T23:39:45.190Z,0.41
2023-03-11T23:42:24.621Z,0.37
2023-03-11T23:44:52.211Z,0.40
2023-03-11T23:47:18.642Z,0.33
2023-03-11T23:49:45.027Z,0.32
2023-03-11T23:52:11.388Z,0.32
2023-03-11T23:54:38.040Z,0.33
2023-03-11T23:57:04.454Z,0.36
2023-03-11T23:59:30.996Z,0.35
